Time;durP1;ratioP1;P1;durP2;ratioP2;P2;SDS_P1;SDS_P2;PMS_P1;PMS_P2;Temp;Humidity;BMP_temperature;BMP_pressure;BME280_temperature;BME280_humidity;BME280_pressure;Samples;Min_cycle;Max_cycle;Signal;HPM_P1;HPM_P2
2022/03/08 00:01:17;;;;;;;;;;;3.40;33.20;;;;;;5038549;28;19920;-77
2022/03/08 00:03:43;;;;;;;;;;;3.40;33.90;;;;;;5067111;28;20356;-79
2022/03/08 00:06:10;;;;;;;;;;;3.40;34.20;;;;;;5049989;28;19928;-80
2022/03/08 00:08:36;;;;;;;;;;;3.40;34.40;;;;;;5051312;28;20361;-80
2022/03/08 00:11:03;;;;;;;;;;;3.30;34.90;;;;;;5068523;28;19932;-79
2022/03/08 00:13:30;;;;;;;;;;;3.40;35.50;;;;;;5052527;28;19924;-79
2022/03/08 00:15:56;;;;;;;;;;;3.40;35.50;;;;;;5054125;28;19925;-80
2022/03/08 00:18:22;;;;;;;;;;;3.40;35.50;;;;;;5063777;28;20281;-80
2022/03/08 00:20:48;;;;;;;;;;;3.40;35.40;;;;;;5066968;28;20439;-77
2022/03/08 00:23:14;;;;;;;;;;;3.40;35.30;;;;;;5056398;28;19924;-77
2022/03/08 00:25:40;;;;;;;;;;;3.40;36.20;;;;;;5056519;28;20381;-77
2022/03/08 00:28:06;;;;;;;;;;;3.50;35.40;;;;;;5059934;28;19916;-80
2022/03/08 00:30:32;;;;;;;;;;;3.50;35.30;;;;;;5058929;28;19932;-77
2022/03/08 00:32:58;;;;;;;;;;;3.50;35.30;;;;;;5063598;28;19925;-76
2022/03/08 00:35:25;;;;;;;;;;;3.50;35.20;;;;;;5061954;28;19936;-77
2022/03/08 00:37:52;;;;;;;;;;;3.50;35.10;;;;;;5052949;28;20423;-76
2022/03/08 00:40:23;;;;;;;;;;;3.50;35.10;;;;;;5055314;28;20333;-77
2022/03/08 00:42:50;;;;;;;;;;;3.50;35.10;;;;;;5046670;28;20020;-76
2022/03/08 00:45:17;;;;;;;;;;;3.40;35.00;;;;;;5034368;28;19925;-76
2022/03/08 00:47:44;;;;;;;;;;;3.50;35.00;;;;;;5051730;28;19933;-77
2022/03/08 00:50:14;;;;;;;;;;;3.50;35.00;;;;;;5034189;28;19988;-80
2022/03/08 00:52:40;;;;;;;;;;;3.50;35.00;;;;;;5051608;28;20007;-79
2022/03/08 00:55:08;;;;;;;;;;;3.50;34.90;;;;;;5050130;28;19928;-76
2022/03/08 00:57:34;;;;;;;;;;;3.50;34.90;;;;;;5032427;28;19921;-76
2022/03/08 01:00:00;;;;;;;;;;;3.50;35.00;;;;;;5025771;28;20290;-80
2022/03/08 01:02:26;;;;;;;;;;;3.40;34.90;;;;;;5054641;28;20399;-80
2022/03/08 01:04:52;;;;;;;;;;;3.40;34.90;;;;;;5036533;28;19921;-79
2022/03/08 01:07:18;;;;;;;;;;;3.40;35.00;;;;;;5034316;28;19928;-79
2022/03/08 01:09:44;;;;;;;;;;;3.40;35.00;;;;;;5063632;28;19931;-77
2022/03/08 01:12:10;;;;;;;;;;;3.40;35.00;;;;;;5056478;28;20374;-76
2022/03/08 01:14:36;;;;;;;;;;;3.40;34.60;;;;;;5034047;28;19925;-79
2022/03/08 01:17:02;;;;;;;;;;;3.40;35.30;;;;;;5052599;28;20392;-79
2022/03/08 01:19:28;;;;;;;;;;;3.30;34.70;;;;;;5058161;28;20382;-76
2022/03/08 01:21:54;;;;;;;;;;;3.40;35.30;;;;;;5041311;28;19925;-80
2022/03/08 01:24:20;;;;;;;;;;;3.40;35.30;;;;;;5040392;28;20293;-77
2022/03/08 01:26:46;;;;;;;;;;;3.40;35.30;;;;;;5013158;28;19925;-79
2022/03/08 01:29:12;;;;;;;;;;;3.40;35.30;;;;;;5037014;28;20381;-79
2022/03/08 01:31:38;;;;;;;;;;;3.40;34.80;;;;;;5052410;28;19917;-79
2022/03/08 01:34:04;;;;;;;;;;;3.40;35.30;;;;;;5034275;28;19932;-80
2022/03/08 01:36:30;;;;;;;;;;;3.40;35.30;;;;;;5052855;28;19995;-76
2022/03/08 01:38:56;;;;;;;;;;;3.40;35.40;;;;;;5055243;28;19947;-77
2022/03/08 01:41:22;;;;;;;;;;;3.40;35.50;;;;;;5037181;28;20028;-79
2022/03/08 01:43:48;;;;;;;;;;;3.40;35.40;;;;;;5055712;28;19928;-76
2022/03/08 01:46:15;;;;;;;;;;;3.40;35.30;;;;;;5054395;28;19921;-79
2022/03/08 01:48:42;;;;;;;;;;;3.40;35.30;;;;;;5071457;28;20377;-77
2022/03/08 01:51:08;;;;;;;;;;;3.50;35.50;;;;;;5053073;28;19935;-80
2022/03/08 01:53:35;;;;;;;;;;;3.40;35.30;;;;;;5068772;28;20370;-79
2022/03/08 01:56:01;;;;;;;;;;;3.50;35.50;;;;;;5070570;28;19929;-79
2022/03/08 01:58:27;;;;;;;;;;;3.40;35.10;;;;;;5058874;28;19921;-77
2022/03/08 02:00:53;;;;;;;;;;;3.40;35.60;;;;;;5056573;28;19940;-79
2022/03/08 02:03:19;;;;;;;;;;;3.40;35.70;;;;;;5045687;28;19968;-76
2022/03/08 02:05:45;;;;;;;;;;;3.40;35.70;;;;;;5048278;28;19936;-79
2022/03/08 02:08:12;;;;;;;;;;;3.30;35.90;;;;;;5063381;28;19925;-76
2022/03/08 02:10:38;;;;;;;;;;;3.20;35.90;;;;;;5037914;28;20369;-76
2022/03/08 02:13:04;;;;;;;;;;;3.20;36.10;;;;;;5072963;28;19921;-77
2022/03/08 02:15:30;;;;;;;;;;;3.20;36.10;;;;;;5039118;28;19987;-79
2022/03/08 02:17:58;;;;;;;;;;;3.10;36.20;;;;;;5070187;28;19924;-80
2022/03/08 02:20:24;;;;;;;;;;;3.10;36.20;;;;;;5050234;28;19957;-76
2022/03/08 02:22:51;;;;;;;;;;;3.00;36.40;;;;;;5037673;28;19963;-79
2022/03/08 02:25:18;;;;;;;;;;;2.90;36.40;;;;;;5038663;28;20015;-79
2022/03/08 02:27:47;;;;;;;;;;;2.80;36.50;;;;;;5056569;28;19924;-79
2022/03/08 02:30:15;;;;;;;;;;;2.80;36.70;;;;;;5054861;28;19963;-76
2022/03/08 02:32:41;;;;;;;;;;;2.60;36.80;;;;;;5059907;28;19956;-79
2022/03/08 02:35:10;;;;;;;;;;;2.50;37.00;;;;;;5052364;28;19925;-76
2022/03/08 02:37:58;;;;;;;;;;;2.50;37.20;;;;;;5036100;28;19943;-76
2022/03/08 02:40:27;;;;;;;;;;;2.30;37.30;;;;;;5055642;28;20269;-79
2022/03/08 02:42:54;;;;;;;;;;;2.20;37.40;;;;;;5070170;28;19920;-79
2022/03/08 02:45:21;;;;;;;;;;;2.10;37.50;;;;;;5036267;28;19925;-79
2022/03/08 02:47:47;;;;;;;;;;;2.10;37.10;;;;;;5053961;28;19925;-77
2022/03/08 02:50:14;;;;;;;;;;;2.10;37.70;;;;;;5054882;28;19978;-79
2022/03/08 02:52:42;;;;;;;;;;;2.00;37.70;;;;;;5037138;28;20369;-80
2022/03/08 02:55:11;;;;;;;;;;;1.90;37.80;;;;;;5034147;28;19983;-79
2022/03/08 02:57:38;;;;;;;;;;;1.90;38.00;;;;;;5049824;28;19956;-79
2022/03/08 03:00:05;;;;;;;;;;;1.80;37.90;;;;;;5054264;28;19986;-79
2022/03/08 03:02:31;;;;;;;;;;;1.80;38.00;;;;;;5036854;28;19964;-77
2022/03/08 03:04:57;;;;;;;;;;;1.80;38.20;;;;;;5024970;28;19921;-79
2022/03/08 03:07:24;;;;;;;;;;;1.70;38.70;;;;;;5052438;28;19921;-77
2022/03/08 03:09:51;;;;;;;;;;;1.60;38.60;;;;;;5054260;28;19971;-79
2022/03/08 03:12:17;;;;;;;;;;;1.60;38.70;;;;;;5052976;28;19963;-79
2022/03/08 03:14:43;;;;;;;;;;;1.60;38.70;;;;;;5070664;28;19960;-79
2022/03/08 03:17:09;;;;;;;;;;;1.60;39.00;;;;;;5069080;28;20274;-77
2022/03/08 03:19:36;;;;;;;;;;;1.50;38.70;;;;;;5064557;28;19921;-77
2022/03/08 03:22:03;;;;;;;;;;;1.50;39.30;;;;;;5036069;28;20015;-78
2022/03/08 03:24:29;;;;;;;;;;;1.40;39.30;;;;;;5036546;28;20383;-76
2022/03/08 03:26:55;;;;;;;;;;;1.50;39.50;;;;;;5052616;28;19931;-77
2022/03/08 03:29:21;;;;;;;;;;;1.40;39.70;;;;;;5035394;28;19975;-76
2022/03/08 03:31:47;;;;;;;;;;;1.40;39.60;;;;;;5064362;28;19925;-77
2022/03/08 03:34:13;;;;;;;;;;;1.40;39.60;;;;;;5035680;28;19920;-77
2022/03/08 03:36:39;;;;;;;;;;;1.40;39.50;;;;;;5052913;28;19924;-76
2022/03/08 03:39:05;;;;;;;;;;;1.40;39.60;;;;;;5053676;28;19982;-76
2022/03/08 03:41:32;;;;;;;;;;;1.30;39.50;;;;;;5037413;28;19925;-79
2022/03/08 03:43:58;;;;;;;;;;;1.30;39.60;;;;;;5053834;28;20352;-79
2022/03/08 03:46:24;;;;;;;;;;;1.30;39.70;;;;;;5053660;28;19924;-79
2022/03/08 03:48:50;;;;;;;;;;;1.30;39.70;;;;;;5056451;28;19925;-79
2022/03/08 03:51:16;;;;;;;;;;;1.30;39.50;;;;;;5052090;28;19932;-79
2022/03/08 03:53:43;;;;;;;;;;;1.30;40.20;;;;;;5059910;28;19924;-77
2022/03/08 03:56:09;;;;;;;;;;;1.20;39.90;;;;;;5042578;28;19925;-79
2022/03/08 03:58:35;;;;;;;;;;;1.20;39.50;;;;;;5041197;28;19931;-77
2022/03/08 04:01:01;;;;;;;;;;;1.20;40.10;;;;;;5034773;28;20004;-77
2022/03/08 04:03:27;;;;;;;;;;;1.20;39.60;;;;;;5052229;28;19921;-77
2022/03/08 04:05:53;;;;;;;;;;;1.20;40.10;;;;;;5052110;28;19925;-79
2022/03/08 04:08:20;;;;;;;;;;;1.20;40.10;;;;;;5054490;28;19947;-76
2022/03/08 04:11:05;;;;;;;;;;;1.20;40.20;;;;;;5067603;28;19933;-77
2022/03/08 04:13:31;;;;;;;;;;;1.20;40.20;;;;;;5019575;28;19964;-76
2022/03/08 04:15:57;;;;;;;;;;;1.20;40.30;;;;;;5064786;28;19924;-79
2022/03/08 04:18:23;;;;;;;;;;;1.20;40.30;;;;;;5066281;28;20007;-79
2022/03/08 04:20:49;;;;;;;;;;;1.20;40.30;;;;;;5068304;28;20373;-79
2022/03/08 04:23:15;;;;;;;;;;;1.20;40.30;;;;;;5051015;28;19927;-77
2022/03/08 04:25:41;;;;;;;;;;;1.20;40.40;;;;;;5051575;28;20442;-76
2022/03/08 04:28:07;;;;;;;;;;;1.30;40.20;;;;;;5051802;28;19925;-79
2022/03/08 04:30:33;;;;;;;;;;;1.30;40.20;;;;;;5066617;28;19982;-76
2022/03/08 04:32:59;;;;;;;;;;;1.30;40.00;;;;;;5037413;28;20381;-80
2022/03/08 04:35:25;;;;;;;;;;;1.40;39.90;;;;;;5051732;28;19928;-80
2022/03/08 04:37:51;;;;;;;;;;;1.30;40.00;;;;;;5066128;28;19925;-76
2022/03/08 04:40:17;;;;;;;;;;;1.30;40.10;;;;;;5055273;28;19944;-79
2022/03/08 04:42:43;;;;;;;;;;;1.20;40.10;;;;;;5052570;28;20314;-77
2022/03/08 04:45:11;;;;;;;;;;;1.20;39.70;;;;;;5060816;28;19921;-77
2022/03/08 04:47:37;;;;;;;;;;;1.10;40.30;;;;;;5060354;28;20029;-79
2022/03/08 04:50:05;;;;;;;;;;;1.10;40.40;;;;;;5034632;28;19999;-79
2022/03/08 04:52:31;;;;;;;;;;;1.10;40.40;;;;;;5060714;28;19924;-78
2022/03/08 04:54:57;;;;;;;;;;;1.10;40.60;;;;;;5051042;28;20290;-78
2022/03/08 04:57:23;;;;;;;;;;;1.00;40.60;;;;;;5052241;28;20313;-76
2022/03/08 04:59:49;;;;;;;;;;;1.00;40.70;;;;;;5035402;28;19971;-76
2022/03/08 05:02:15;;;;;;;;;;;0.90;40.70;;;;;;5034341;28;19925;-76
2022/03/08 05:04:40;;;;;;;;;;;0.90;40.80;;;;;;5051883;28;20023;-79
2022/03/08 05:07:06;;;;;;;;;;;0.90;40.80;;;;;;5034031;28;19931;-79
2022/03/08 05:09:32;;;;;;;;;;;0.80;40.80;;;;;;5035120;28;20336;-78
2022/03/08 05:11:58;;;;;;;;;;;0.80;40.80;;;;;;5052296;28;19917;-76
2022/03/08 05:14:25;;;;;;;;;;;0.80;40.90;;;;;;5052524;28;19921;-78
2022/03/08 05:16:52;;;;;;;;;;;0.70;40.90;;;;;;5069922;28;19925;-78
2022/03/08 05:19:18;;;;;;;;;;;0.70;40.90;;;;;;5051348;28;19932;-79
2022/03/08 05:21:44;;;;;;;;;;;0.70;41.10;;;;;;5063556;28;19925;-76
2022/03/08 05:24:10;;;;;;;;;;;0.60;41.10;;;;;;5063577;28;19925;-78
2022/03/08 05:26:37;;;;;;;;;;;0.50;41.30;;;;;;5053655;28;20460;-78
2022/03/08 05:29:04;;;;;;;;;;;0.50;41.20;;;;;;5050328;28;19931;-76
2022/03/08 05:31:30;;;;;;;;;;;0.50;41.30;;;;;;5049590;28;19929;-76
2022/03/08 05:33:56;;;;;;;;;;;0.40;41.50;;;;;;5062300;28;19956;-78
2022/03/08 05:36:22;;;;;;;;;;;0.40;41.70;;;;;;5057896;28;19932;-76
2022/03/08 05:38:48;;;;;;;;;;;0.40;41.70;;;;;;5052805;28;19920;-79
2022/03/08 05:41:14;;;;;;;;;;;0.40;41.80;;;;;;5052740;28;19931;-76
2022/03/08 05:43:40;;;;;;;;;;;0.30;42.20;;;;;;5053385;28;19921;-77
2022/03/08 05:46:06;;;;;;;;;;;0.30;42.80;;;;;;5034885;28;19925;-77
2022/03/08 05:48:32;;;;;;;;;;;0.20;43.20;;;;;;5037912;28;19929;-76
2022/03/08 05:50:58;;;;;;;;;;;0.20;43.50;;;;;;5065733;28;19916;-77
2022/03/08 05:53:24;;;;;;;;;;;0.20;43.40;;;;;;5052639;28;19921;-78
2022/03/08 05:55:50;;;;;;;;;;;0.30;43.40;;;;;;5033883;28;19925;-76
2022/03/08 05:58:16;;;;;;;;;;;0.30;43.30;;;;;;5049424;28;19925;-76
2022/03/08 06:00:42;;;;;;;;;;;0.40;43.20;;;;;;5048693;28;20393;-76
2022/03/08 06:03:07;;;;;;;;;;;0.50;43.40;;;;;;5033769;28;19924;-79
2022/03/08 06:05:35;;;;;;;;;;;0.60;43.30;;;;;;5049143;28;19955;-79
2022/03/08 06:08:02;;;;;;;;;;;0.60;43.30;;;;;;5032824;28;20355;-76
2022/03/08 06:10:29;;;;;;;;;;;0.60;43.20;;;;;;5051424;28;20381;-76
2022/03/08 06:12:55;;;;;;;;;;;0.70;43.30;;;;;;5051789;28;19932;-76
2022/03/08 06:15:21;;;;;;;;;;;0.70;43.40;;;;;;5031959;28;20278;-76
2022/03/08 06:17:47;;;;;;;;;;;0.70;43.30;;;;;;5046216;28;19916;-78
2022/03/08 06:20:13;;;;;;;;;;;0.80;43.40;;;;;;5055399;28;20034;-78
2022/03/08 06:22:39;;;;;;;;;;;0.90;43.30;;;;;;5058492;28;20000;-79
2022/03/08 06:25:06;;;;;;;;;;;0.90;43.10;;;;;;5037237;28;20304;-78
2022/03/08 06:27:32;;;;;;;;;;;0.90;42.90;;;;;;5054311;28;19931;-76
2022/03/08 06:29:58;;;;;;;;;;;0.90;42.40;;;;;;5053977;28;19917;-78
2022/03/08 06:32:24;;;;;;;;;;;1.00;42.90;;;;;;5037504;28;19967;-78
2022/03/08 06:34:51;;;;;;;;;;;1.00;42.20;;;;;;5040230;28;19947;-78
2022/03/08 06:37:18;;;;;;;;;;;1.10;42.70;;;;;;5066900;28;19963;-76
2022/03/08 06:39:45;;;;;;;;;;;1.10;42.60;;;;;;5055053;28;20431;-78
2022/03/08 06:42:12;;;;;;;;;;;1.20;42.50;;;;;;5054566;28;19916;-79
2022/03/08 06:44:41;;;;;;;;;;;1.20;41.90;;;;;;5053107;28;19960;-79
2022/03/08 06:47:07;;;;;;;;;;;1.30;42.50;;;;;;5052687;28;19925;-78
2022/03/08 06:49:34;;;;;;;;;;;1.40;42.30;;;;;;5052792;28;19952;-77
2022/03/08 06:52:00;;;;;;;;;;;1.50;42.40;;;;;;5035708;28;20385;-79
2022/03/08 06:54:26;;;;;;;;;;;1.50;42.40;;;;;;5037056;28;20231;-76
2022/03/08 06:56:52;;;;;;;;;;;1.60;42.60;;;;;;5054761;28;19921;-78
2022/03/08 06:59:18;;;;;;;;;;;1.70;42.50;;;;;;5068829;28;20179;-76
2022/03/08 07:01:44;;;;;;;;;;;1.80;42.60;;;;;;5056164;28;19924;-78
2022/03/08 07:04:10;;;;;;;;;;;1.90;42.80;;;;;;5065161;28;20427;-76
2022/03/08 07:06:36;;;;;;;;;;;2.10;42.80;;;;;;5040838;28;19931;-76
2022/03/08 07:09:03;;;;;;;;;;;2.10;42.60;;;;;;5051132;28;19920;-77
2022/03/08 07:11:29;;;;;;;;;;;2.20;42.40;;;;;;5043215;28;20427;-79
2022/03/08 07:13:55;;;;;;;;;;;2.40;42.50;;;;;;5055264;28;19968;-79
2022/03/08 07:16:21;;;;;;;;;;;2.50;42.60;;;;;;5051967;28;19925;-77
2022/03/08 07:18:47;;;;;;;;;;;2.60;42.70;;;;;;5052365;28;19991;-77
2022/03/08 07:21:13;;;;;;;;;;;2.70;42.60;;;;;;5055063;28;19940;-78
2022/03/08 07:23:39;;;;;;;;;;;2.80;42.50;;;;;;5053366;28;19925;-77
2022/03/08 07:26:05;;;;;;;;;;;2.90;42.60;;;;;;5055056;28;19971;-79
2022/03/08 07:28:31;;;;;;;;;;;3.00;42.60;;;;;;5055556;28;19929;-76
2022/03/08 07:30:57;;;;;;;;;;;3.10;42.50;;;;;;5052155;28;19925;-79
2022/03/08 07:33:23;;;;;;;;;;;3.20;42.40;;;;;;5052617;28;19924;-77
2022/03/08 07:35:48;;;;;;;;;;;3.30;42.40;;;;;;5053086;28;19916;-76
2022/03/08 07:38:15;;;;;;;;;;;3.40;42.30;;;;;;5052865;28;19947;-79
2022/03/08 07:40:42;;;;;;;;;;;3.50;42.30;;;;;;5053551;28;20043;-76
2022/03/08 07:43:08;;;;;;;;;;;3.60;42.20;;;;;;5052588;28;20270;-79
2022/03/08 07:45:35;;;;;;;;;;;3.70;42.50;;;;;;5053766;28;19975;-77
2022/03/08 07:48:02;;;;;;;;;;;3.70;42.40;;;;;;5052824;28;19960;-77
2022/03/08 07:50:29;;;;;;;;;;;3.80;42.20;;;;;;5055062;28;19928;-79
2022/03/08 07:52:56;;;;;;;;;;;3.90;42.40;;;;;;5051252;28;19975;-77
2022/03/08 07:55:21;;;;;;;;;;;4.00;42.20;;;;;;5035509;28;21151;-77
2022/03/08 07:57:47;;;;;;;;;;;4.20;42.10;;;;;;5053871;28;19931;-77
2022/03/08 08:00:14;;;;;;;;;;;4.30;41.90;;;;;;5052727;28;19924;-77
2022/03/08 08:02:40;;;;;;;;;;;4.50;41.60;;;;;;5036256;28;19920;-79
2022/03/08 08:05:06;;;;;;;;;;;4.60;41.60;;;;;;5059412;28;20007;-76
2022/03/08 08:07:32;;;;;;;;;;;4.80;40.90;;;;;;5062664;28;20381;-79
2022/03/08 08:09:58;;;;;;;;;;;5.40;41.20;;;;;;5035616;28;19960;-80
2022/03/08 08:12:24;;;;;;;;;;;6.90;39.60;;;;;;5053412;28;19938;-79
2022/03/08 08:14:50;;;;;;;;;;;8.10;38.10;;;;;;5035539;28;19920;-80
2022/03/08 08:17:17;;;;;;;;;;;9.00;37.50;;;;;;5035222;28;19977;-78
2022/03/08 08:19:44;;;;;;;;;;;10.00;37.20;;;;;;5070474;28;20289;-78
2022/03/08 08:22:09;;;;;;;;;;;10.80;36.20;;;;;;5045609;28;19939;-82
2022/03/08 08:24:35;;;;;;;;;;;11.70;37.00;;;;;;5051957;28;19924;-78
2022/03/08 08:27:02;;;;;;;;;;;12.40;35.30;;;;;;5051978;28;19920;-79
2022/03/08 08:29:27;;;;;;;;;;;12.90;34.30;;;;;;5051234;28;20235;-79
2022/03/08 08:31:53;;;;;;;;;;;13.70;33.80;;;;;;5053876;28;20378;-78
2022/03/08 08:34:19;;;;;;;;;;;14.30;32.70;;;;;;5048380;28;19932;-80
2022/03/08 08:36:47;;;;;;;;;;;14.60;31.40;;;;;;5055049;28;19925;-79
2022/03/08 08:39:33;;;;;;;;;;;14.90;30.10;;;;;;5051817;28;20006;-81
2022/03/08 08:41:58;;;;;;;;;;;15.40;30.00;;;;;;5051462;28;19925;-81
2022/03/08 08:44:26;;;;;;;;;;;15.90;29.60;;;;;;5052849;28;20389;-78
2022/03/08 08:46:53;;;;;;;;;;;16.50;28.90;;;;;;5052824;28;20425;-79
2022/03/08 08:49:19;;;;;;;;;;;17.10;28.20;;;;;;5051429;28;20015;-78
2022/03/08 08:51:45;;;;;;;;;;;17.60;27.20;;;;;;5033059;28;19971;-78
2022/03/08 08:54:11;;;;;;;;;;;17.90;26.90;;;;;;5060540;28;19931;-82
2022/03/08 08:56:38;;;;;;;;;;;18.60;26.50;;;;;;5069465;28;20365;-78
2022/03/08 08:59:05;;;;;;;;;;;19.30;25.40;;;;;;5045312;28;19924;-79
2022/03/08 09:01:31;;;;;;;;;;;19.60;24.70;;;;;;5041413;28;19961;-83
2022/03/08 09:03:58;;;;;;;;;;;19.80;24.30;;;;;;5039195;28;20031;-78
2022/03/08 09:06:26;;;;;;;;;;;20.40;23.90;;;;;;5051836;28;19925;-83
2022/03/08 09:08:51;;;;;;;;;;;20.60;23.60;;;;;;5051855;28;19995;-78
2022/03/08 09:11:17;;;;;;;;;;;20.80;23.00;;;;;;5053764;28;19924;-82
2022/03/08 09:13:43;;;;;;;;;;;21.30;22.60;;;;;;5052648;28;19924;-78
2022/03/08 09:16:09;;;;;;;;;;;21.60;21.80;;;;;;5049702;28;19929;-78
2022/03/08 09:18:35;;;;;;;;;;;22.20;21.10;;;;;;5070582;28;19924;-82
2022/03/08 09:21:02;;;;;;;;;;;22.30;20.20;;;;;;5056731;28;19916;-79
2022/03/08 09:23:28;;;;;;;;;;;21.80;21.00;;;;;;5051584;28;19928;-79
2022/03/08 09:25:54;;;;;;;;;;;22.40;20.20;;;;;;5050693;28;19925;-77
2022/03/08 09:28:20;;;;;;;;;;;23.00;19.80;;;;;;5034920;28;19929;-77
2022/03/08 09:30:48;;;;;;;;;;;23.70;18.80;;;;;;5023309;28;19939;-83
2022/03/08 09:33:14;;;;;;;;;;;23.70;17.70;;;;;;5063989;28;19954;-79
2022/03/08 09:35:39;;;;;;;;;;;22.50;18.50;;;;;;5057381;28;19970;-84
2022/03/08 09:38:05;;;;;;;;;;;22.40;18.50;;;;;;5054161;28;19924;-78
2022/03/08 09:40:32;;;;;;;;;;;23.00;17.90;;;;;;5060875;28;20389;-83
2022/03/08 09:42:58;;;;;;;;;;;22.80;17.60;;;;;;5058490;28;19925;-78
2022/03/08 09:45:24;;;;;;;;;;;22.10;18.40;;;;;;5032983;28;19929;-78
2022/03/08 09:47:51;;;;;;;;;;;23.20;17.70;;;;;;5042138;28;19922;-78
2022/03/08 09:50:17;;;;;;;;;;;24.10;16.40;;;;;;5049396;28;20026;-78
2022/03/08 09:52:43;;;;;;;;;;;25.10;15.80;;;;;;5033182;28;20443;-82
2022/03/08 09:55:14;;;;;;;;;;;25.20;15.30;;;;;;5051851;28;19925;-84
2022/03/08 09:57:41;;;;;;;;;;;23.60;15.90;;;;;;5053788;28;19925;-79
2022/03/08 10:00:09;;;;;;;;;;;24.20;15.80;;;;;;5054688;28;19966;-78
2022/03/08 10:02:54;;;;;;;;;;;23.30;15.80;;;;;;5057494;28;19921;-78
2022/03/08 10:05:43;;;;;;;;;;;21.20;16.80;;;;;;5055315;28;19931;-83
2022/03/08 10:08:13;;;;;;;;;;;19.60;17.70;;;;;;5061573;28;19932;-78
2022/03/08 10:10:59;;;;;;;;;;;19.00;17.90;;;;;;5048623;28;19932;-77
2022/03/08 10:13:47;;;;;;;;;;;20.60;17.20;;;;;;5064467;28;19932;-78
2022/03/08 10:16:42;;;;;;;;;;;20.70;16.50;;;;;;5037622;28;19929;-78
2022/03/08 10:19:10;;;;;;;;;;;19.80;17.20;;;;;;5054737;28;20395;-78
2022/03/08 10:21:44;;;;;;;;;;;19.80;17.50;;;;;;5054500;28;19925;-78
2022/03/08 10:24:22;;;;;;;;;;;18.90;17.80;;;;;;5039139;28;20385;-79
2022/03/08 10:27:09;;;;;;;;;;;17.70;18.50;;;;;;5065269;28;19921;-83
2022/03/08 10:29:55;;;;;;;;;;;17.40;18.90;;;;;;5043606;28;20309;-83
2022/03/08 10:32:21;;;;;;;;;;;17.70;18.70;;;;;;5035502;28;19925;-81
2022/03/08 10:34:51;;;;;;;;;;;17.90;18.50;;;;;;5049626;28;20297;-81
2022/03/08 10:37:20;;;;;;;;;;;18.50;18.10;;;;;;5055981;28;19925;-81
2022/03/08 10:40:06;;;;;;;;;;;19.10;17.60;;;;;;5055008;28;19925;-80
2022/03/08 10:42:35;;;;;;;;;;;19.40;17.30;;;;;;5056102;28;20066;-78
2022/03/08 10:45:19;;;;;;;;;;;20.80;16.40;;;;;;5035519;28;19921;-80
2022/03/08 10:48:04;;;;;;;;;;;21.80;15.60;;;;;;5054167;28;19921;-78
2022/03/08 10:50:32;;;;;;;;;;;22.90;15.10;;;;;;5053085;28;19932;-80
2022/03/08 10:52:59;;;;;;;;;;;24.30;14.30;;;;;;5053821;28;20028;-79
2022/03/08 10:55:45;;;;;;;;;;;25.30;12.80;;;;;;5048633;28;19932;-82
2022/03/08 10:58:12;;;;;;;;;;;23.90;13.80;;;;;;5040935;28;19973;-81
2022/03/08 11:00:41;;;;;;;;;;;23.50;14.20;;;;;;5038780;28;19924;-82
2022/03/08 11:03:09;;;;;;;;;;;23.40;13.90;;;;;;5054541;28;19921;-82
2022/03/08 11:05:54;;;;;;;;;;;21.30;14.90;;;;;;5056117;28;20012;-82
2022/03/08 11:08:21;;;;;;;;;;;19.80;16.00;;;;;;5070154;28;19924;-82
2022/03/08 11:10:47;;;;;;;;;;;18.60;16.50;;;;;;5057214;28;19924;-78
2022/03/08 11:13:15;;;;;;;;;;;17.90;17.00;;;;;;5065440;28;20285;-78
2022/03/08 11:15:43;;;;;;;;;;;17.30;17.30;;;;;;5069104;28;19924;-82
2022/03/08 11:18:11;;;;;;;;;;;18.80;16.40;;;;;;5059710;28;19928;-82
2022/03/08 11:20:38;;;;;;;;;;;18.40;16.40;;;;;;5056915;28;19982;-79
2022/03/08 11:23:05;;;;;;;;;;;17.90;16.60;;;;;;5063746;28;19956;-82
2022/03/08 11:25:50;;;;;;;;;;;17.40;16.80;;;;;;5042138;28;19930;-78
2022/03/08 11:28:35;;;;;;;;;;;18.30;16.90;;;;;;5060369;28;19932;-81
2022/03/08 11:31:01;;;;;;;;;;;18.60;16.30;;;;;;5035783;28;19924;-78
2022/03/08 11:34:05;;;;;;;;;;;17.60;16.20;;;;;;5052878;28;19925;-78
2022/03/08 11:36:50;;;;;;;;;;;17.50;17.10;;;;;;5050987;28;19939;-78
2022/03/08 11:39:39;;;;;;;;;;;17.80;16.50;;;;;;5054886;28;20006;-80
2022/03/08 11:42:26;;;;;;;;;;;17.90;16.90;;;;;;5053193;28;19928;-81
2022/03/08 11:45:12;;;;;;;;;;;20.70;15.00;;;;;;5052543;28;19920;-79
2022/03/08 11:47:58;;;;;;;;;;;21.70;14.50;;;;;;5052759;28;20019;-82
2022/03/08 11:50:46;;;;;;;;;;;23.50;13.00;;;;;;5054893;28;19938;-78
2022/03/08 11:53:14;;;;;;;;;;;25.00;12.70;;;;;;5052936;28;20399;-79
2022/03/08 11:55:43;;;;;;;;;;;23.90;12.10;;;;;;5049277;28;19932;-78
2022/03/08 11:58:19;;;;;;;;;;;21.50;13.80;;;;;;5053192;28;20335;-82
2022/03/08 12:01:06;;;;;;;;;;;21.60;14.40;;;;;;5067988;28;19972;-77
2022/03/08 12:03:32;;;;;;;;;;;24.10;13.30;;;;;;5064453;28;19937;-81
2022/03/08 12:06:19;;;;;;;;;;;26.40;12.10;;;;;;5053055;28;20381;-82
2022/03/08 12:09:07;;;;;;;;;;;27.80;10.90;;;;;;5065504;28;19925;-78
2022/03/08 12:11:36;;;;;;;;;;;26.90;11.10;;;;;;5056939;28;19928;-78
2022/03/08 12:14:13;;;;;;;;;;;25.60;12.00;;;;;;5064814;28;19944;-83
2022/03/08 12:16:43;;;;;;;;;;;25.70;11.40;;;;;;5051485;28;19925;-78
2022/03/08 12:19:10;;;;;;;;;;;25.20;11.60;;;;;;5052631;28;19950;-76
2022/03/08 12:21:44;;;;;;;;;;;27.10;10.70;;;;;;5055110;28;19932;-81
2022/03/08 12:24:13;;;;;;;;;;;29.30;9.80;;;;;;5053116;28;19925;-78
2022/03/08 12:26:59;;;;;;;;;;;30.80;8.70;;;;;;5034297;28;19920;-81
2022/03/08 12:30:02;;;;;;;;;;;27.70;10.00;;;;;;5053390;28;19931;-78
2022/03/08 12:32:32;;;;;;;;;;;26.80;10.30;;;;;;5050165;28;19925;-78
2022/03/08 12:35:19;;;;;;;;;;;24.60;11.70;;;;;;5059119;28;19928;-78
2022/03/08 12:37:46;;;;;;;;;;;22.40;13.00;;;;;;5059379;28;19963;-79
2022/03/08 12:40:12;;;;;;;;;;;20.80;14.10;;;;;;5035449;28;19925;-81
2022/03/08 12:42:51;;;;;;;;;;;19.90;14.70;;;;;;5051708;28;20020;-78
2022/03/08 12:45:20;;;;;;;;;;;19.10;14.80;;;;;;5058507;28;20428;-81
2022/03/08 12:47:55;;;;;;;;;;;18.50;15.20;;;;;;5064381;28;20019;-81
2022/03/08 12:50:58;;;;;;;;;;;18.00;15.30;;;;;;5052262;28;19925;-78
2022/03/08 12:53:43;;;;;;;;;;;17.60;15.60;;;;;;5057109;28;20273;-78
2022/03/08 12:56:28;;;;;;;;;;;17.30;15.90;;;;;;5051801;28;19967;-82
2022/03/08 12:59:13;;;;;;;;;;;16.80;16.00;;;;;;5053685;28;20329;-78
2022/03/08 13:01:39;;;;;;;;;;;16.20;16.20;;;;;;5051055;28;19929;-79
2022/03/08 13:04:05;;;;;;;;;;;16.00;16.50;;;;;;5051603;28;19931;-81
2022/03/08 13:06:34;;;;;;;;;;;16.90;16.20;;;;;;5034424;28;20457;-81
2022/03/08 13:09:04;;;;;;;;;;;16.90;15.90;;;;;;5049884;28;20389;-78
2022/03/08 13:11:36;;;;;;;;;;;16.40;16.00;;;;;;5039610;28;19921;-80
2022/03/08 13:14:10;;;;;;;;;;;16.10;16.40;;;;;;5053243;28;20147;-78
2022/03/08 13:16:37;;;;;;;;;;;15.90;16.50;;;;;;5051913;28;19925;-78
2022/03/08 13:19:04;;;;;;;;;;;16.40;16.20;;;;;;5052320;28;19924;-77
2022/03/08 13:21:30;;;;;;;;;;;18.40;15.70;;;;;;5052496;28;20000;-80
2022/03/08 13:23:58;;;;;;;;;;;18.50;15.00;;;;;;5034561;28;19925;-80
2022/03/08 13:29:27;;;;;;;;;;;20.30;14.00;;;;;;5053655;28;19932;-80
2022/03/08 13:31:53;;;;;;;;;;;18.40;14.90;;;;;;5047467;28;19925;-80
2022/03/08 13:34:19;;;;;;;;;;;17.50;15.80;;;;;;5061947;28;20507;-78
2022/03/08 13:37:04;;;;;;;;;;;16.80;16.30;;;;;;5062591;28;19931;-81
2022/03/08 13:39:30;;;;;;;;;;;16.10;16.80;;;;;;5062706;28;19925;-78
2022/03/08 13:41:56;;;;;;;;;;;15.50;16.90;;;;;;5037986;28;20339;-77
2022/03/08 13:44:25;;;;;;;;;;;15.10;17.80;;;;;;5035226;28;20358;-80
2022/03/08 13:46:50;;;;;;;;;;;14.60;18.10;;;;;;5064137;28;19925;-77
2022/03/08 13:49:20;;;;;;;;;;;14.20;18.40;;;;;;5046538;28;19925;-81
2022/03/08 13:51:46;;;;;;;;;;;13.80;18.70;;;;;;5037607;28;20381;-77
2022/03/08 13:54:12;;;;;;;;;;;13.60;19.10;;;;;;5039239;28;20401;-78
2022/03/08 13:56:56;;;;;;;;;;;13.40;19.30;;;;;;5049096;28;20335;-81
2022/03/08 13:59:35;;;;;;;;;;;13.40;19.30;;;;;;5058543;28;19928;-81
2022/03/08 14:02:21;;;;;;;;;;;13.50;19.10;;;;;;5067075;28;20267;-79
2022/03/08 14:04:47;;;;;;;;;;;13.60;19.00;;;;;;5036674;28;20297;-80
2022/03/08 14:07:19;;;;;;;;;;;13.80;18.70;;;;;;5053015;28;20385;-82
2022/03/08 14:10:04;;;;;;;;;;;13.80;18.90;;;;;;5054079;28;19937;-78
2022/03/08 14:12:50;;;;;;;;;;;13.60;19.00;;;;;;5055307;28;19925;-79
2022/03/08 14:15:17;;;;;;;;;;;13.30;19.10;;;;;;5061349;28;20396;-81
2022/03/08 14:18:05;;;;;;;;;;;13.20;19.30;;;;;;5065753;28;19917;-78
2022/03/08 14:20:36;;;;;;;;;;;16.10;18.10;;;;;;5055300;28;19932;-78
2022/03/08 14:23:24;;;;;;;;;;;19.40;15.90;;;;;;5044473;28;19920;-80
2022/03/08 14:26:09;;;;;;;;;;;21.70;14.20;;;;;;5056091;28;19928;-80
2022/03/08 14:29:12;;;;;;;;;;;23.10;12.90;;;;;;5037431;28;20289;-81
2022/03/08 14:31:46;;;;;;;;;;;23.40;12.60;;;;;;5054987;28;19929;-82
2022/03/08 14:34:32;;;;;;;;;;;23.90;11.60;;;;;;5053890;28;19975;-80
2022/03/08 14:37:00;;;;;;;;;;;25.40;11.30;;;;;;5053838;28;20373;-77
2022/03/08 14:39:45;;;;;;;;;;;27.10;10.80;;;;;;5055029;28;20390;-82